KCLT/CLT METAR and TAF weather

Enter ICAO airport designator
Station Type Date Time Source
KCLT METAR 2018/12/18 10:52 UTC NOAA

KCLT 181052Z 00000KT 10SM CLR 02/M02 A3005 RMK AO2 SLP177 T00221017


Station Type Date Time Source
KCLT Decoded METAR 2018/12/18 10:52 UTC NOAA

CHARLOTTE/DOUGLAS INTERNATIONAL , NC, United States (KCLT) 35-13N 80-57W 220M
Dec 18, 2018 - 05:52 AM EST / 2018.12.18 1052 UTC
Wind: Calm:0
Visibility: 10 mile(s):0
Sky conditions: clear
Temperature: 36.0 F (2.2 C)
Dew Point: 28.9 F (-1.7 C)
Relative Humidity: 75%
Pressure (altimeter): 30.05 in. Hg (1017 hPa)
ob: KCLT 181052Z 00000KT 10SM CLR 02/M02 A3005 RMK AO2 SLP177 T00221017
cycle: 11

Station Type Date Time Source
KCLT TAF 2018/12/18 10:33 UTC NOAA

TAF
AMD KCLT 180930Z 1810/1912 33004KT P6SM SKC
FM181100 01003KT P6SM SKC
FM181800 06005KT P6SM SCT250
FM190000 10004KT P6SM FEW250


Example: see airport list